Time;durP1;ratioP1;P1;durP2;ratioP2;P2;SDS_P1;SDS_P2;PMS_P1;PMS_P2;Temp;Humidity;BMP_temperature;BMP_pressure;BME280_temperature;BME280_humidity;BME280_pressure;Samples;Min_cycle;Max_cycle;Signal;HPM_P1;HPM_P2
2023/03/07 00:07:30;;;;;;;17.90;8.13;;;2.90;99.90;;;;;;20658076;28;20598;-78
2023/03/07 00:17:31;;;;;;;18.85;8.05;;;2.90;99.90;;;;;;20698562;28;20128;-80
2023/03/07 00:27:32;;;;;;;18.90;7.68;;;2.80;99.90;;;;;;20630563;28;20031;-79
2023/03/07 00:37:33;;;;;;;16.77;7.65;;;2.70;99.90;;;;;;20596502;28;20070;-79
2023/03/07 00:47:34;;;;;;;19.20;8.43;;;2.60;99.90;;;;;;20617582;28;20023;-81
2023/03/07 00:57:35;;;;;;;13.38;6.78;;;2.40;99.90;;;;;;20597343;28;20035;-79
2023/03/07 01:07:36;;;;;;;17.02;8.52;;;2.30;99.90;;;;;;20598895;28;20031;-80
2023/03/07 01:17:36;;;;;;;18.00;7.53;;;2.20;99.90;;;;;;20600995;28;20031;-80
2023/03/07 01:27:38;;;;;;;21.90;7.45;;;2.10;99.90;;;;;;20605480;28;20035;-79
2023/03/07 01:37:39;;;;;;;20.50;7.32;;;2.20;99.90;;;;;;20613693;28;20034;-79
2023/03/07 01:47:43;;;;;;;17.92;7.25;;;2.10;99.90;;;;;;20621043;28;20054;-79
2023/03/07 01:57:47;;;;;;;18.65;7.47;;;1.90;99.90;;;;;;20620538;28;20375;-79
2023/03/07 02:07:50;;;;;;;18.08;7.07;;;2.00;99.90;;;;;;20619133;28;20034;-79
2023/03/07 02:17:57;;;;;;;17.98;7.55;;;2.00;99.90;;;;;;20630819;28;20035;-79
2023/03/07 02:28:00;;;;;;;18.23;8.02;;;2.10;99.90;;;;;;20629911;28;20034;-79
2023/03/07 02:38:03;;;;;;;15.88;7.57;;;2.00;99.90;;;;;;20616159;28;20041;-79
2023/03/07 02:48:04;;;;;;;20.30;7.38;;;1.90;99.90;;;;;;20616316;28;20125;-79
2023/03/07 02:58:05;;;;;;;17.40;7.47;;;1.70;99.90;;;;;;20618386;28;20030;-79
2023/03/07 03:08:06;;;;;;;18.67;7.22;;;1.60;99.90;;;;;;20614761;28;20038;-79
2023/03/07 03:18:07;;;;;;;18.00;7.45;;;1.30;99.90;;;;;;20626553;28;20167;-80
2023/03/07 03:28:08;;;;;;;18.52;7.47;;;1.10;99.90;;;;;;20660490;28;20060;-79
2023/03/07 03:38:10;;;;;;;17.40;7.28;;;0.70;99.90;;;;;;20642867;28;20041;-78
2023/03/07 03:48:10;;;;;;;25.23;8.88;;;0.10;99.90;;;;;;20602047;28;20027;-79
2023/03/07 03:58:11;;;;;;;19.17;7.90;;;0.10;99.90;;;;;;20609340;28;20090;-79
2023/03/07 04:08:13;;;;;;;17.20;7.15;;;0.00;99.90;;;;;;20607845;28;20035;-79
2023/03/07 04:18:15;;;;;;;19.85;8.07;;;0.10;99.90;;;;;;20592195;28;20039;-79
2023/03/07 04:28:17;;;;;;;16.15;6.75;;;0.20;99.90;;;;;;20587117;28;20101;-79
2023/03/07 04:38:18;;;;;;;18.73;7.47;;;0.40;99.90;;;;;;20575214;28;20077;-79
2023/03/07 04:48:19;;;;;;;16.50;7.35;;;0.50;99.90;;;;;;20591195;28;20031;-79
2023/03/07 04:58:20;;;;;;;18.17;7.70;;;0.60;99.90;;;;;;20570659;28;20116;-78
2023/03/07 05:08:21;;;;;;;17.15;7.15;;;0.60;99.90;;;;;;20552239;28;20118;-76
2023/03/07 05:18:24;;;;;;;17.65;8.10;;;0.50;99.90;;;;;;20591418;28;20035;-75
2023/03/07 05:28:26;;;;;;;19.27;7.63;;;0.70;99.90;;;;;;20595586;28;20042;-76
2023/03/07 05:38:27;;;;;;;19.63;7.75;;;0.80;99.90;;;;;;20601109;28;20065;-76
2023/03/07 05:48:28;;;;;;;15.27;7.18;;;0.80;99.90;;;;;;20594910;28;20093;-77
2023/03/07 05:58:29;;;;;;;15.98;7.43;;;0.70;99.90;;;;;;20593958;28;20027;-77
2023/03/07 06:08:30;;;;;;;13.05;6.57;;;0.90;99.90;;;;;;20591308;28;20125;-77
2023/03/07 06:18:31;;;;;;;15.65;6.85;;;1.00;99.90;;;;;;20597398;28;20026;-78
2023/03/07 06:28:32;;;;;;;15.35;6.70;;;1.10;99.90;;;;;;20545345;28;20569;-78
2023/03/07 06:38:33;;;;;;;15.50;6.88;;;1.00;99.90;;;;;;20563507;28;20035;-78
2023/03/07 06:48:35;;;;;;;23.40;9.25;;;1.20;99.90;;;;;;20615167;28;20054;-78
2023/03/07 06:58:39;;;;;;;31.45;9.43;;;1.40;99.90;;;;;;20655332;28;20026;-80
2023/03/07 07:08:43;;;;;;;23.02;8.77;;;1.40;99.90;;;;;;20697791;28;20030;-81
2023/03/07 07:18:45;;;;;;;27.33;9.55;;;1.60;99.90;;;;;;20714918;28;20200;-81
2023/03/07 07:28:46;;;;;;;17.10;8.60;;;1.80;99.90;;;;;;20695786;28;20114;-80
2023/03/07 07:38:46;;;;;;;22.63;10.20;;;2.00;99.90;;;;;;20647369;28;20039;-78
2023/03/07 07:48:48;;;;;;;24.00;9.77;;;2.10;99.90;;;;;;20616853;28;20041;-80
2023/03/07 07:58:50;;;;;;;19.45;7.70;;;2.40;99.90;;;;;;20614620;28;20184;-81
2023/03/07 08:08:53;;;;;;;19.85;7.45;;;2.80;99.90;;;;;;20612340;28;20035;-79
2023/03/07 08:18:55;;;;;;;15.63;7.80;;;3.00;99.90;;;;;;20610772;28;20511;-78
2023/03/07 08:28:57;;;;;;;16.13;7.28;;;3.20;99.90;;;;;;20611544;28;20023;-78
2023/03/07 08:38:57;;;;;;;19.92;7.68;;;3.30;99.90;;;;;;20655756;28;20104;-78
2023/03/07 08:48:58;;;;;;;15.73;7.00;;;3.90;99.90;;;;;;20674957;28;20074;-77
2023/03/07 08:58:59;;;;;;;19.35;8.23;;;3.70;99.90;;;;;;20673846;28;20044;-78
2023/03/07 09:08:59;;;;;;;18.85;7.15;;;4.20;99.90;;;;;;20625969;28;20125;-79
2023/03/07 09:19:00;;;;;;;15.57;6.00;;;4.50;99.90;;;;;;20594393;28;20046;-79
2023/03/07 09:29:01;;;;;;;14.13;6.32;;;4.70;99.90;;;;;;20592786;28;20054;-78
2023/03/07 09:39:03;;;;;;;10.63;5.47;;;4.90;99.90;;;;;;20658611;28;20051;-78
2023/03/07 09:49:25;;;;;;;12.13;5.35;;;5.30;99.90;;;;;;20677975;28;20034;-79
2023/03/07 09:59:47;;;;;;;15.67;5.47;;;5.40;99.90;;;;;;20601964;28;20050;-78
2023/03/07 10:09:56;;;;;;;17.63;6.95;;;5.70;99.90;;;;;;20602358;28;20513;-79
2023/03/07 10:20:22;;;;;;;17.60;6.80;;;7.10;99.90;;;;;;20530758;28;20122;-80
2023/03/07 10:30:22;;;;;;;14.48;6.47;;;8.10;99.90;;;;;;20526801;29;20458;-79
2023/03/07 10:40:33;;;;;;;13.90;6.50;;;9.00;99.90;;;;;;20574712;28;20031;-79
2023/03/07 10:50:45;;;;;;;16.85;8.27;;;9.40;99.90;;;;;;20514081;29;20059;-78
2023/03/07 11:00:59;;;;;;;16.48;7.30;;;9.10;99.90;;;;;;20516850;28;20042;-79
2023/03/07 11:11:03;;;;;;;16.27;7.20;;;10.30;99.90;;;;;;20523282;28;20074;-80
2023/03/07 11:21:04;;;;;;;19.30;7.45;;;9.50;99.90;;;;;;20519706;29;20060;-78
2023/03/07 11:31:10;;;;;;;15.50;6.70;;;7.50;99.90;;;;;;20525773;29;20035;-79
2023/03/07 11:41:31;;;;;;;18.67;7.05;;;8.90;99.90;;;;;;20527548;29;20126;-79
2023/03/07 11:51:42;;;;;;;16.27;7.07;;;10.60;99.90;;;;;;20521654;29;20027;-79
2023/03/07 12:01:51;;;;;;;19.73;7.53;;;10.80;99.90;;;;;;20516076;29;20733;-79
2023/03/07 12:12:04;;;;;;;18.73;8.30;;;10.50;99.90;;;;;;20551123;28;20089;-79
2023/03/07 12:22:16;;;;;;;14.63;7.00;;;9.50;99.90;;;;;;20511313;28;20047;-79
2023/03/07 12:32:24;;;;;;;16.15;7.60;;;9.50;99.90;;;;;;20520710;29;20039;-79
2023/03/07 12:42:47;;;;;;;16.17;7.57;;;9.20;99.90;;;;;;20516264;28;20035;-78
2023/03/07 12:53:10;;;;;;;13.70;7.15;;;8.60;99.90;;;;;;20583591;28;20050;-79
2023/03/07 13:03:22;;;;;;;12.40;6.80;;;8.80;99.90;;;;;;20670046;28;20038;-79
2023/03/07 13:13:42;;;;;;;14.85;6.72;;;9.60;99.90;;;;;;20591962;28;20753;-79
2023/03/07 13:23:43;;;;;;;14.93;7.22;;;9.90;99.90;;;;;;20599731;28;20231;-80
2023/03/07 13:33:43;;;;;;;15.37;7.70;;;9.10;99.90;;;;;;20606569;28;20090;-79
2023/03/07 13:43:44;;;;;;;20.23;7.77;;;8.70;99.90;;;;;;20618836;28;20033;-79
2023/03/07 13:54:00;;;;;;;16.83;8.43;;;8.20;99.90;;;;;;20609149;28;20034;-79
2023/03/07 14:04:01;;;;;;;22.65;8.18;;;8.10;99.90;;;;;;20622326;28;20041;-80
2023/03/07 14:14:30;;;;;;;22.20;7.93;;;7.90;99.90;;;;;;20689903;28;20044;-79
2023/03/07 14:24:45;;;;;;;14.63;7.40;;;7.90;99.90;;;;;;20688063;28;20041;-79
2023/03/07 14:34:49;;;;;;;17.65;7.80;;;7.80;99.90;;;;;;20607640;28;20031;-80
2023/03/07 14:45:13;;;;;;;20.88;8.25;;;7.70;99.90;;;;;;20605285;28;20045;-79
2023/03/07 14:55:18;;;;;;;19.30;8.15;;;7.10;99.90;;;;;;20602212;28;20050;-79
2023/03/07 15:05:28;;;;;;;17.10;7.88;;;7.10;99.90;;;;;;20603935;28;20031;-79
2023/03/07 15:15:44;;;;;;;15.98;7.38;;;6.70;99.90;;;;;;20607087;28;20069;-79
2023/03/07 15:25:46;;;;;;;22.33;9.00;;;6.70;99.90;;;;;;20615670;28;20031;-79
2023/03/07 15:36:05;;;;;;;19.13;8.93;;;6.60;99.90;;;;;;20605350;28;20022;-78
2023/03/07 15:46:16;;;;;;;20.80;8.27;;;6.50;99.90;;;;;;20613703;28;20027;-80
2023/03/07 15:56:40;;;;;;;18.00;7.80;;;6.40;99.90;;;;;;20520930;28;20058;-76
2023/03/07 16:06:43;;;;;;;17.55;7.80;;;6.10;99.90;;;;;;20640945;28;20042;-78
2023/03/07 16:16:45;;;;;;;16.55;8.40;;;6.10;99.90;;;;;;20579898;28;20506;-74
2023/03/07 16:26:46;;;;;;;;;;;6.40;99.90;;;;;;20554791;28;20027;-76
2023/03/07 16:36:47;;;;;;;18.35;7.93;;;6.30;99.90;;;;;;20541989;28;19936;-77
2023/03/07 16:47:08;;;;;;;;;;;5.90;99.90;;;;;;20501559;28;20082;-79
2023/03/07 16:57:13;;;;;;;18.67;7.95;;;5.60;99.90;;;;;;20492076;28;20005;-77
2023/03/07 17:07:17;;;;;;;17.38;8.45;;;5.50;99.90;;;;;;20511798;28;20038;-77
2023/03/07 17:17:24;;;;;;;27.08;8.18;;;5.30;99.90;;;;;;20564058;28;20090;-78
2023/03/07 17:27:24;;;;;;;21.40;8.18;;;5.30;99.90;;;;;;20523049;28;20039;-78
2023/03/07 17:37:25;;;;;;;;;;;5.20;99.90;;;;;;20620124;28;20412;-78
2023/03/07 17:47:26;;;;;;;19.93;9.20;;;5.20;99.90;;;;;;20677501;28;19909;-77
2023/03/07 17:57:27;;;;;;;;;;;5.10;99.90;;;;;;20676608;28;20030;-78
2023/03/07 18:07:28;;;;;;;24.85;8.38;;;5.10;99.90;;;;;;20617653;28;19910;-78
2023/03/07 18:17:28;;;;;;;;;;;5.10;99.90;;;;;;20549387;28;20027;-80
2023/03/07 18:27:29;;;;;;;23.73;8.23;;;5.10;99.90;;;;;;20534277;28;19916;-79
2023/03/07 18:37:30;;;;;;;;;;;5.00;99.90;;;;;;20616610;28;20062;-79
2023/03/07 18:47:31;;;;;;;33.50;12.73;;;5.00;99.90;;;;;;20665764;28;19921;-75
2023/03/07 18:57:31;;;;;;;;;;;4.90;99.90;;;;;;20598887;28;20705;-75
2023/03/07 19:07:33;;;;;;;19.95;8.00;;;4.90;99.90;;;;;;20590075;28;20413;-77
2023/03/07 19:17:38;;;;;;;21.63;8.35;;;4.90;99.90;;;;;;20543573;28;20034;-74
2023/03/07 19:27:39;;;;;;;21.70;8.75;;;4.80;99.90;;;;;;20542263;28;20506;-76
2023/03/07 19:37:40;;;;;;;;;;;4.80;99.90;;;;;;20562326;28;20039;-76
2023/03/07 19:47:41;;;;;;;18.63;9.10;;;4.80;99.90;;;;;;20540055;28;20453;-75
2023/03/07 19:57:41;;;;;;;;;;;4.70;99.90;;;;;;20540896;28;20079;-76
2023/03/07 20:07:42;;;;;;;18.73;8.57;;;4.70;99.90;;;;;;20543483;28;20334;-76
2023/03/07 20:17:43;;;;;;;23.10;8.77;;;4.70;99.90;;;;;;20534415;28;20023;-75
2023/03/07 20:27:43;;;;;;;;;;;4.60;99.90;;;;;;20542537;28;20067;-76
2023/03/07 20:37:44;;;;;;;26.70;10.10;;;4.60;99.90;;;;;;20546935;28;19953;-78
2023/03/07 20:47:45;;;;;;;;;;;4.50;99.90;;;;;;20557216;28;20623;-76
2023/03/07 20:57:47;;;;;;;23.52;10.27;;;4.50;99.90;;;;;;20564731;28;19964;-77
2023/03/07 21:07:48;;;;;;;24.38;8.88;;;4.50;99.90;;;;;;20531541;28;20027;-75
2023/03/07 21:17:50;;;;;;;18.67;9.32;;;4.50;99.90;;;;;;20518602;28;20438;-75
2023/03/07 21:27:50;;;;;;;22.55;8.55;;;4.50;99.90;;;;;;20552405;28;20041;-74
2023/03/07 21:37:51;;;;;;;26.92;8.68;;;4.60;99.90;;;;;;20567733;28;20455;-76
2023/03/07 21:47:53;;;;;;;20.88;8.88;;;4.70;99.90;;;;;;20552196;28;20067;-77
2023/03/07 21:57:53;;;;;;;24.67;10.02;;;4.60;99.90;;;;;;20547675;28;20105;-77
2023/03/07 22:07:54;;;;;;;27.20;9.48;;;4.50;99.90;;;;;;20565930;28;20057;-76
2023/03/07 22:17:55;;;;;;;;;;;4.40;99.90;;;;;;20576268;28;20162;-75
2023/03/07 22:27:56;;;;;;;21.60;9.70;;;4.30;99.90;;;;;;20556494;28;20396;-76
2023/03/07 22:37:56;;;;;;;;;;;4.20;99.90;;;;;;20592905;28;20290;-76
2023/03/07 22:47:57;;;;;;;24.43;9.97;;;4.00;99.90;;;;;;20591421;28;19910;-76
2023/03/07 22:57:58;;;;;;;23.80;11.25;;;3.80;99.90;;;;;;20598890;28;20282;-75
2023/03/07 23:07:59;;;;;;;20.60;9.27;;;3.50;99.90;;;;;;20613776;28;20035;-76
2023/03/07 23:18:00;;;;;;;23.52;10.55;;;3.50;99.90;;;;;;20584717;28;20038;-76
2023/03/07 23:28:01;;;;;;;24.70;9.48;;;3.50;99.90;;;;;;20588935;28;20066;-77
2023/03/07 23:38:03;;;;;;;30.33;12.20;;;3.10;99.90;;;;;;20587888;28;20034;-76
2023/03/07 23:48:04;;;;;;;29.48;12.18;;;3.00;99.90;;;;;;20602788;28;20027;-76
2023/03/07 23:58:04;;;;;;;52.17;21.13;;;2.60;99.90;;;;;;20569213;28;20039;-77
